createdAt,value
2019-04-14T00:00:01.927Z,31.30
2019-04-14T00:02:49.799Z,34.27
2019-04-14T00:05:58.358Z,38.37
2019-04-14T00:19:28.375Z,32.43
2019-04-14T00:22:38.088Z,31.00
2019-04-14T00:25:08.675Z,32.50
2019-04-14T00:27:38.865Z,33.67
2019-04-14T00:30:49.099Z,32.07
2019-04-14T00:36:28.286Z,31.50
2019-04-14T00:38:58.315Z,25.80
2019-04-14T00:41:51.932Z,28.50
2019-04-14T00:44:36.523Z,30.50
2019-04-14T00:47:24.650Z,24.10
2019-04-14T00:49:53.107Z,31.80
2019-04-14T00:52:21.616Z,29.90
2019-04-14T00:55:09.695Z,27.73
2019-04-14T00:57:38.259Z,25.23
2019-04-14T01:00:47.333Z,22.50
2019-04-14T01:03:17.756Z,22.40
2019-04-14T01:05:48.116Z,26.63
2019-04-14T01:11:10.037Z,23.43
2019-04-14T01:13:39.656Z,26.10
2019-04-14T01:16:13.931Z,30.27
2019-04-14T01:18:38.890Z,31.10
2019-04-14T01:24:01.045Z,28.47
2019-04-14T01:26:31.120Z,34.10
2019-04-14T01:28:59.585Z,29.80
2019-04-14T01:31:47.425Z,32.63
2019-04-14T01:34:15.867Z,30.40
2019-04-14T01:36:45.311Z,35.17
2019-04-14T01:39:34.930Z,30.33
2019-04-14T01:42:23.181Z,34.33
2019-04-14T01:44:52.534Z,32.40
2019-04-14T01:47:42.059Z,35.87
2019-04-14T01:53:05.394Z,31.83
2019-04-14T01:55:54.827Z,31.70
2019-04-14T01:58:43.147Z,31.13
2019-04-14T02:03:47.767Z,33.80
2019-04-14T02:06:37.644Z,32.77
2019-04-14T02:09:47.146Z,43.70
2019-04-14T02:12:34.816Z,31.10
2019-04-14T02:17:58.889Z,35.07
2019-04-14T02:20:49.054Z,33.03
2019-04-14T02:23:38.576Z,33.03
2019-04-14T02:26:26.966Z,30.70
2019-04-14T02:29:14.766Z,38.97
2019-04-14T02:32:13.881Z,32.13
2019-04-14T02:34:57.326Z,34.93
2019-04-14T02:37:28.321Z,33.10
2019-04-14T02:42:46.764Z,36.03
2019-04-14T02:45:42.904Z,38.40
2019-04-14T02:51:25.592Z,44.47
2019-04-14T02:56:43.414Z,35.40
2019-04-14T03:00:02.741Z,36.97
2019-04-14T03:02:42.571Z,33.00
2019-04-14T03:05:42.280Z,38.70
2019-04-14T03:16:39.739Z,33.03
2019-04-14T03:24:33.757Z,30.17
2019-04-14T03:27:48.243Z,36.53
2019-04-14T03:31:11.226Z,37.87
2019-04-14T03:44:01.573Z,36.67
2019-04-14T03:54:40.585Z,36.80
2019-04-14T03:57:30.079Z,37.23
2019-04-14T04:00:00.618Z,35.70
2019-04-14T04:02:29.694Z,42.17
2019-04-14T04:04:58.251Z,36.90
2019-04-14T04:07:47.422Z,34.73
2019-04-14T04:13:06.267Z,38.20
2019-04-14T04:15:36.502Z,37.43
2019-04-14T04:21:20.661Z,35.40
2019-04-14T04:24:09.056Z,36.47
2019-04-14T04:29:36.047Z,36.37
2019-04-14T04:35:13.138Z,42.03
2019-04-14T04:38:00.945Z,36.03
2019-04-14T04:40:48.773Z,41.00
2019-04-14T04:43:17.327Z,39.33
2019-04-14T04:45:45.810Z,39.00
2019-04-14T04:48:34.870Z,38.83
2019-04-14T04:51:22.993Z,38.53
2019-04-14T04:54:10.707Z,38.20
2019-04-14T04:56:40.446Z,38.07
2019-04-14T04:59:09.812Z,32.27
2019-04-14T05:01:58.923Z,34.97
2019-04-14T05:04:28.573Z,38.60
2019-04-14T05:07:38.329Z,37.37
2019-04-14T05:10:27.053Z,39.27
2019-04-14T05:18:50.895Z,35.57
2019-04-14T05:21:40.924Z,35.70
2019-04-14T05:24:11.328Z,43.07
2019-04-14T05:26:59.872Z,38.70
2019-04-14T05:32:21.617Z,41.87
2019-04-14T05:37:46.412Z,38.20
2019-04-14T05:40:34.765Z,40.50
2019-04-14T05:43:32.266Z,38.23
2019-04-14T05:46:12.108Z,37.90
2019-04-14T05:49:02.192Z,40.27
2019-04-14T05:51:32.621Z,41.20
2019-04-14T05:54:21.083Z,42.67
2019-04-14T05:59:44.061Z,47.53
2019-04-14T06:02:33.594Z,47.83
2019-04-14T06:05:03.718Z,41.83
2019-04-14T06:07:52.468Z,40.97
2019-04-14T06:10:40.274Z,40.60
2019-04-14T06:16:02.496Z,43.03
2019-04-14T06:18:31.091Z,45.20
2019-04-14T06:20:59.573Z,43.13
2019-04-14T06:23:47.464Z,46.70
2019-04-14T06:26:35.268Z,47.37
2019-04-14T06:32:17.360Z,51.30
2019-04-14T06:35:04.956Z,45.80
2019-04-14T06:46:36.397Z,47.03
2019-04-14T06:49:24.267Z,34.93
2019-04-14T06:51:52.750Z,39.30
2019-04-14T06:54:40.436Z,37.67
2019-04-14T06:57:28.169Z,38.93
2019-04-14T06:59:56.763Z,51.70
2019-04-14T07:02:25.252Z,42.00
2019-04-14T07:04:53.805Z,33.67
2019-04-14T07:07:22.347Z,34.17
2019-04-14T07:09:50.977Z,30.13
2019-04-14T07:12:19.441Z,36.37
2019-04-14T07:14:48.026Z,40.53
2019-04-14T07:17:16.508Z,35.20
2019-04-14T07:19:45.061Z,32.30
2019-04-14T07:22:13.658Z,31.87
2019-04-14T07:24:42.144Z,31.77
2019-04-14T07:27:10.618Z,31.53
2019-04-14T07:29:58.341Z,36.17
2019-04-14T07:32:46.017Z,33.07
2019-04-14T07:35:33.757Z,26.27
2019-04-14T07:38:21.414Z,24.97
2019-04-14T07:41:09.142Z,24.60
2019-04-14T07:44:16.106Z,31.03
2019-04-14T07:49:39.032Z,26.03
2019-04-14T07:52:26.701Z,24.27
2019-04-14T07:55:33.698Z,24.37
2019-04-14T08:01:10.514Z,26.67
2019-04-14T08:04:17.519Z,25.30
2019-04-14T08:09:21.620Z,23.80
2019-04-14T08:12:09.293Z,22.63
2019-04-14T08:14:37.822Z,27.53
2019-04-14T08:17:06.330Z,37.23
2019-04-14T08:19:34.893Z,22.47
2019-04-14T08:25:16.167Z,24.80
2019-04-14T08:28:03.971Z,23.70
2019-04-14T08:30:51.779Z,19.77
2019-04-14T08:33:39.626Z,23.13
2019-04-14T08:36:27.431Z,25.77
2019-04-14T08:38:55.958Z,22.20
2019-04-14T08:47:51.047Z,21.73
2019-04-14T08:53:47.156Z,21.90
2019-04-14T08:56:34.764Z,21.50
2019-04-14T08:59:41.658Z,19.87
2019-04-14T09:02:48.590Z,29.23
2019-04-14T09:08:34.965Z,23.37
2019-04-14T09:11:41.899Z,22.00
2019-04-14T09:14:29.736Z,22.33
2019-04-14T09:16:58.221Z,21.30
2019-04-14T09:22:19.991Z,23.10
2019-04-14T09:25:07.797Z,26.43
2019-04-14T09:27:55.478Z,21.20
2019-04-14T09:30:43.319Z,19.73
2019-04-14T09:33:11.794Z,20.80
2019-04-14T09:35:59.589Z,20.30
2019-04-14T09:38:28.073Z,18.13
2019-04-14T09:41:15.939Z,30.03
2019-04-14T09:44:03.743Z,20.90
2019-04-14T09:49:25.678Z,23.10
2019-04-14T09:52:13.534Z,23.40
2019-04-14T09:55:01.338Z,24.37
2019-04-14T09:57:49.188Z,24.23
2019-04-14T10:00:57.584Z,17.30
2019-04-14T10:06:40.879Z,23.10
2019-04-14T10:09:09.022Z,21.93
2019-04-14T10:11:56.910Z,17.70
2019-04-14T10:17:19.064Z,18.63
2019-04-14T10:20:06.902Z,22.50
2019-04-14T10:22:35.394Z,18.90
2019-04-14T10:31:10.516Z,23.60
2019-04-14T10:36:51.418Z,18.13
2019-04-14T10:39:20.180Z,18.57
2019-04-14T10:41:48.823Z,24.87
2019-04-14T10:44:17.316Z,18.77
2019-04-14T10:46:46.001Z,26.50
2019-04-14T10:49:14.632Z,20.90
2019-04-14T10:51:43.259Z,17.47
2019-04-14T10:54:11.934Z,27.97
2019-04-14T10:56:40.554Z,19.23
2019-04-14T10:59:09.106Z,18.93
2019-04-14T11:01:37.783Z,23.13
2019-04-14T11:04:08.001Z,20.20
2019-04-14T11:07:15.113Z,21.47
2019-04-14T11:10:02.792Z,26.30
2019-04-14T11:12:50.641Z,22.33
2019-04-14T11:15:38.452Z,21.00
2019-04-14T11:18:26.180Z,20.50
2019-04-14T11:21:13.853Z,18.33
2019-04-14T11:24:01.627Z,19.07
2019-04-14T11:26:49.360Z,17.07
2019-04-14T11:29:37.418Z,17.20
2019-04-14T11:32:23.864Z,17.50
2019-04-14T11:34:54.086Z,17.93
2019-04-14T11:37:40.519Z,15.33
2019-04-14T11:40:11.216Z,17.13
2019-04-14T11:42:51.598Z,13.47
2019-04-14T11:45:10.328Z,15.10
2019-04-14T11:47:38.857Z,16.67
2019-04-14T11:50:07.983Z,16.17
2019-04-14T11:52:36.542Z,14.13
2019-04-14T11:55:06.273Z,14.77
2019-04-14T11:57:34.764Z,21.80
2019-04-14T12:00:21.691Z,19.27
2019-04-14T12:02:54.540Z,14.77
2019-04-14T12:05:24.644Z,17.27
2019-04-14T12:07:54.784Z,15.67
2019-04-14T12:10:24.320Z,19.03
2019-04-14T12:12:52.810Z,24.90
2019-04-14T12:15:21.313Z,14.00
2019-04-14T12:17:49.780Z,14.90
2019-04-14T12:20:18.246Z,15.27
2019-04-14T12:22:46.889Z,14.87
2019-04-14T12:25:15.422Z,20.37
2019-04-14T12:27:44.327Z,14.27
2019-04-14T12:30:13.801Z,16.90
2019-04-14T12:32:42.917Z,16.17
2019-04-14T12:35:12.293Z,14.93
2019-04-14T12:37:40.881Z,18.80
2019-04-14T12:40:10.534Z,18.27
2019-04-14T12:42:46.693Z,15.57
2019-04-14T12:45:32.358Z,16.20
2019-04-14T12:48:02.506Z,20.63
2019-04-14T12:50:35.395Z,15.07
2019-04-14T12:53:03.998Z,15.43
2019-04-14T12:55:32.520Z,14.63
2019-04-14T12:58:05.303Z,17.60
2019-04-14T13:00:35.395Z,15.77
2019-04-14T13:03:04.349Z,14.00
2019-04-14T13:05:32.818Z,17.70
2019-04-14T13:08:01.281Z,15.33
2019-04-14T13:10:29.999Z,14.23
2019-04-14T13:12:58.523Z,16.10
2019-04-14T13:15:26.997Z,14.77
2019-04-14T13:17:55.486Z,15.13
2019-04-14T13:20:24.013Z,12.70
2019-04-14T13:22:52.467Z,16.10
2019-04-14T13:25:20.978Z,23.17
2019-04-14T13:27:50.492Z,13.13
2019-04-14T13:30:20.762Z,17.90
2019-04-14T13:32:49.252Z,17.27
2019-04-14T13:35:17.718Z,13.67
2019-04-14T13:37:46.183Z,16.43
2019-04-14T13:40:15.059Z,12.80
2019-04-14T13:42:43.525Z,25.17
2019-04-14T13:45:12.222Z,13.07
2019-04-14T13:47:40.770Z,13.80
2019-04-14T13:50:09.421Z,18.40
2019-04-14T13:52:46.699Z,14.50
2019-04-14T13:55:08.744Z,13.50
2019-04-14T13:57:37.207Z,12.33
2019-04-14T14:00:14.014Z,15.47
2019-04-14T14:02:43.420Z,11.27
2019-04-14T14:05:12.616Z,15.50
2019-04-14T14:07:42.133Z,12.07
2019-04-14T14:10:12.534Z,14.03
2019-04-14T14:12:48.226Z,12.77
2019-04-14T14:15:21.553Z,12.47
2019-04-14T14:18:07.761Z,15.40
2019-04-14T14:20:49.844Z,13.77
2019-04-14T14:23:35.330Z,14.53
2019-04-14T14:26:05.507Z,11.07
2019-04-14T14:28:33.967Z,15.90
2019-04-14T14:31:02.488Z,11.80
2019-04-14T14:33:30.943Z,14.30
2019-04-14T14:35:59.415Z,17.57
2019-04-14T14:38:27.918Z,26.37
2019-04-14T14:40:58.085Z,14.40
2019-04-14T14:43:26.543Z,12.97
2019-04-14T14:46:06.281Z,19.30
2019-04-14T14:48:42.545Z,14.13
2019-04-14T14:51:18.461Z,14.43
2019-04-14T14:53:46.926Z,17.10
2019-04-14T14:56:15.560Z,13.30
2019-04-14T14:58:45.468Z,13.90
2019-04-14T15:01:14.341Z,11.83
2019-04-14T15:03:42.871Z,14.40
2019-04-14T15:06:11.367Z,13.10
2019-04-14T15:08:39.838Z,11.67
2019-04-14T15:11:08.303Z,14.27
2019-04-14T15:13:37.036Z,12.13
2019-04-14T15:16:05.739Z,12.40
2019-04-14T15:18:34.275Z,11.40
2019-04-14T15:21:02.935Z,13.57
2019-04-14T15:23:31.466Z,16.07
2019-04-14T15:25:59.997Z,13.23
2019-04-14T15:28:28.616Z,12.60
2019-04-14T15:30:57.073Z,12.83
2019-04-14T15:33:25.533Z,13.43
2019-04-14T15:35:54.053Z,11.93
2019-04-14T15:38:22.580Z,15.73
2019-04-14T15:40:51.112Z,17.10
2019-04-14T15:43:19.613Z,14.50
2019-04-14T15:45:48.087Z,15.73
2019-04-14T15:48:16.551Z,11.87
2019-04-14T15:50:46.390Z,16.40
2019-04-14T15:53:14.921Z,12.07
2019-04-14T15:55:43.455Z,13.13
2019-04-14T15:58:13.595Z,19.40
2019-04-14T16:00:59.708Z,11.70
2019-04-14T16:03:30.268Z,14.03
2019-04-14T16:06:06.499Z,13.97
2019-04-14T16:08:52.766Z,18.50
2019-04-14T16:11:40.061Z,13.40
2019-04-14T16:14:10.306Z,14.00
2019-04-14T16:16:49.226Z,15.30
2019-04-14T16:19:19.460Z,16.50
2019-04-14T16:21:47.921Z,16.17
2019-04-14T16:24:16.390Z,11.47
2019-04-14T16:26:46.673Z,12.83
2019-04-14T16:29:19.200Z,11.13
2019-04-14T16:31:49.326Z,10.73
2019-04-14T16:34:22.336Z,13.77
2019-04-14T16:36:52.243Z,10.33
2019-04-14T16:39:20.841Z,11.03
2019-04-14T16:41:49.682Z,8.33
2019-04-14T16:44:18.222Z,9.87
2019-04-14T16:46:46.678Z,8.50
2019-04-14T16:49:15.241Z,9.77
2019-04-14T16:51:57.217Z,8.47
2019-04-14T16:54:30.169Z,8.40
2019-04-14T16:57:05.731Z,9.17
2019-04-14T16:59:34.193Z,8.70
2019-04-14T17:02:10.733Z,8.03
2019-04-14T17:04:33.144Z,8.40
2019-04-14T17:07:01.588Z,9.70
2019-04-14T17:09:30.077Z,7.90
2019-04-14T17:11:59.415Z,11.73
2019-04-14T17:14:29.595Z,10.10
2019-04-14T17:17:05.766Z,8.37
2019-04-14T17:19:41.777Z,8.33
2019-04-14T17:22:14.864Z,9.50
2019-04-14T17:25:03.334Z,9.17
2019-04-14T17:27:39.519Z,8.87
2019-04-14T17:30:22.466Z,11.03
2019-04-14T17:32:52.599Z,10.77
2019-04-14T17:35:22.725Z,10.37
2019-04-14T17:37:58.464Z,7.53
2019-04-14T17:40:28.626Z,10.03
2019-04-14T17:43:14.082Z,9.00
2019-04-14T17:46:00.284Z,8.63
2019-04-14T17:48:36.336Z,9.20
2019-04-14T17:51:06.561Z,8.50
2019-04-14T17:53:42.672Z,12.70
2019-04-14T17:56:21.535Z,9.50
2019-04-14T17:58:57.968Z,10.27
2019-04-14T18:01:37.061Z,9.27
2019-04-14T18:04:13.117Z,8.30
2019-04-14T18:06:43.277Z,10.33
2019-04-14T18:09:30.957Z,8.47
2019-04-14T18:12:37.780Z,12.23
2019-04-14T18:15:46.180Z,12.00
2019-04-14T18:18:33.763Z,15.00
2019-04-14T18:24:00.989Z,13.87
2019-04-14T18:26:29.461Z,12.40
2019-04-14T18:29:17.080Z,14.30
2019-04-14T18:32:04.652Z,10.07
2019-04-14T18:34:52.264Z,9.97
2019-04-14T18:49:13.430Z,14.53
2019-04-14T18:57:29.307Z,13.67
2019-04-14T19:00:16.974Z,24.17
2019-04-14T19:03:04.880Z,12.87
2019-04-14T19:05:33.404Z,13.90
2019-04-14T19:08:21.150Z,12.07
2019-04-14T19:11:08.746Z,10.93
2019-04-14T19:19:15.415Z,10.60
2019-04-14T19:21:43.872Z,11.43
2019-04-14T19:24:12.389Z,8.63
2019-04-14T19:29:33.976Z,13.30
2019-04-14T19:32:02.503Z,13.83
2019-04-14T19:37:04.660Z,14.37
2019-04-14T19:39:33.159Z,12.10
2019-04-14T19:44:54.622Z,11.20
2019-04-14T19:52:51.534Z,16.37
2019-04-14T19:55:20.865Z,10.03
2019-04-14T19:57:50.192Z,10.23
2019-04-14T20:03:46.126Z,10.70
2019-04-14T20:06:14.581Z,10.37
2019-04-14T20:08:43.056Z,14.97
2019-04-14T20:11:31.226Z,14.20
2019-04-14T20:14:18.872Z,16.13
2019-04-14T20:17:06.553Z,10.10
2019-04-14T20:19:54.192Z,9.63
2019-04-14T20:22:41.843Z,9.40
2019-04-14T20:25:33.957Z,12.30
2019-04-14T20:28:38.156Z,11.17
2019-04-14T20:31:25.801Z,15.23
2019-04-14T20:36:28.589Z,11.30
2019-04-14T20:39:16.273Z,11.90
2019-04-14T20:44:52.032Z,12.23
2019-04-14T20:47:20.498Z,9.73
2019-04-14T20:49:48.954Z,10.07
2019-04-14T20:52:36.868Z,11.63
2019-04-14T20:55:47.269Z,12.23
2019-04-14T20:58:15.496Z,10.90
2019-04-14T21:00:44.023Z,13.10
2019-04-14T21:03:31.719Z,11.33
2019-04-14T21:09:08.485Z,11.57
2019-04-14T21:14:45.273Z,16.37
2019-04-14T21:17:32.851Z,10.20
2019-04-14T21:22:55.863Z,9.07
2019-04-14T21:31:30.982Z,10.27
2019-04-14T21:34:18.547Z,9.43
2019-04-14T21:37:06.160Z,7.37
2019-04-14T21:39:53.799Z,9.23
2019-04-14T21:44:55.891Z,6.50
2019-04-14T21:47:24.357Z,6.30
2019-04-14T21:49:52.810Z,5.27
2019-04-14T21:52:40.772Z,4.37
2019-04-14T21:55:28.477Z,4.80
2019-04-14T21:58:16.159Z,4.03
2019-04-14T22:01:42.332Z,3.97
2019-04-14T22:07:24.932Z,4.23
2019-04-14T22:10:12.751Z,4.00
2019-04-14T22:15:49.492Z,4.20
2019-04-14T22:24:01.941Z,4.57
2019-04-14T22:29:22.758Z,4.27
2019-04-14T22:31:51.338Z,4.40
2019-04-14T22:34:19.785Z,5.10
2019-04-14T22:37:07.457Z,3.73
2019-04-14T22:39:35.913Z,4.77
2019-04-14T22:42:04.437Z,4.50
2019-04-14T22:47:06.703Z,4.03
2019-04-14T22:49:35.175Z,4.10
2019-04-14T22:54:56.846Z,5.40
2019-04-14T22:57:25.310Z,4.37
2019-04-14T23:05:43.282Z,5.43
2019-04-14T23:11:39.310Z,3.90
2019-04-14T23:14:26.879Z,4.40
2019-04-14T23:17:14.633Z,4.83
2019-04-14T23:20:02.196Z,4.13
2019-04-14T23:25:46.020Z,5.37
2019-04-14T23:33:37.580Z,5.10
2019-04-14T23:36:25.392Z,7.73
2019-04-14T23:39:13.033Z,6.30
2019-04-14T23:41:41.652Z,6.23
2019-04-14T23:44:10.101Z,6.03
2019-04-14T23:46:57.943Z,5.60
2019-04-14T23:49:26.420Z,4.90
2019-04-14T23:52:14.096Z,6.03
2019-04-14T23:54:42.582Z,5.23
2019-04-14T23:57:11.102Z,5.27
2019-04-14T23:59:39.607Z,5.00
